createdAt,value
2023-03-04T00:00:40.234Z,1.24
2023-03-04T00:01:40.281Z,1.23
2023-03-04T00:02:40.216Z,1.19
2023-03-04T00:03:40.208Z,1.12
2023-03-04T00:04:40.208Z,1.13
2023-03-04T00:05:40.168Z,1.06
2023-03-04T00:06:40.153Z,1.05
2023-03-04T00:07:40.146Z,1.05
2023-03-04T00:08:40.129Z,1.02
2023-03-04T00:09:40.114Z,0.99
2023-03-04T00:10:40.109Z,1.05
2023-03-04T00:11:40.096Z,0.98
2023-03-04T00:12:40.074Z,1.04
2023-03-04T00:13:40.068Z,0.98
2023-03-04T00:14:40.059Z,0.98
2023-03-04T00:15:40.064Z,1.01
2023-03-04T00:16:40.105Z,0.96
2023-03-04T00:17:40.014Z,0.99
2023-03-04T00:18:40.020Z,0.96
2023-03-04T00:19:39.996Z,0.94
2023-03-04T00:20:39.978Z,0.94
2023-03-04T00:21:39.964Z,0.91
2023-03-04T00:22:39.950Z,0.92
2023-03-04T00:23:39.940Z,0.84
2023-03-04T00:24:39.915Z,0.86
2023-03-04T00:25:41.916Z,0.80
2023-03-04T00:26:39.898Z,0.83
2023-03-04T00:27:39.876Z,0.78
2023-03-04T00:28:39.864Z,0.76
2023-03-04T00:29:39.855Z,0.76
2023-03-04T00:30:39.849Z,0.77
2023-03-04T00:31:39.891Z,0.76
2023-03-04T00:32:39.858Z,0.81
2023-03-04T00:33:39.809Z,0.78
2023-03-04T00:34:39.781Z,0.76
2023-03-04T00:35:39.794Z,0.68
2023-03-04T00:36:39.769Z,0.63
2023-03-04T00:37:39.759Z,0.50
2023-03-04T00:38:39.755Z,0.47
2023-03-04T00:39:39.714Z,0.43
2023-03-04T00:40:39.711Z,0.40
2023-03-04T00:41:39.701Z,0.37
2023-03-04T00:42:39.682Z,0.36
2023-03-04T00:43:39.678Z,0.34
2023-03-04T00:44:39.663Z,0.29
2023-03-04T00:45:39.682Z,0.28
2023-03-04T00:46:39.643Z,0.26
2023-03-04T00:47:39.639Z,0.21
2023-03-04T00:48:39.606Z,0.23
2023-03-04T00:49:39.591Z,0.28
2023-03-04T00:50:39.583Z,0.23
2023-03-04T00:51:39.568Z,0.23
2023-03-04T00:52:39.552Z,0.25
2023-03-04T00:53:39.540Z,0.26
2023-03-04T00:54:39.532Z,0.28
2023-03-04T00:55:39.513Z,0.28
2023-03-04T00:56:39.491Z,0.26
2023-03-04T00:57:39.480Z,0.32
2023-03-04T00:58:39.476Z,0.32
2023-03-04T00:59:39.452Z,0.31
2023-03-04T01:00:39.444Z,0.28
2023-03-04T01:01:39.476Z,0.25
2023-03-04T01:02:39.462Z,0.28
2023-03-04T01:03:39.442Z,0.31
2023-03-04T01:04:39.398Z,0.34
2023-03-04T01:05:39.371Z,0.43
2023-03-04T01:06:39.364Z,0.40
2023-03-04T01:07:39.344Z,0.44
2023-03-04T01:08:39.341Z,0.40
2023-03-04T01:09:39.321Z,0.40
2023-03-04T01:10:39.302Z,0.37
2023-03-04T01:11:39.291Z,0.32
2023-03-04T01:12:39.287Z,0.26
2023-03-04T01:13:39.280Z,0.22
2023-03-04T01:14:39.259Z,0.12
2023-03-04T01:15:39.243Z,0.01
2023-03-04T01:16:39.287Z,0.00
2023-03-04T01:17:39.274Z,-0.06
2023-03-04T01:18:39.206Z,-0.08
2023-03-04T01:19:39.219Z,-0.10
2023-03-04T01:20:39.171Z,-0.17
2023-03-04T01:21:39.167Z,-0.15
2023-03-04T01:22:39.152Z,-0.20
2023-03-04T01:23:39.144Z,-0.18
2023-03-04T01:24:39.122Z,-0.26
2023-03-04T01:25:39.126Z,-0.23
2023-03-04T01:26:39.102Z,-0.25
2023-03-04T01:27:39.088Z,-0.26
2023-03-04T01:28:39.068Z,-0.31
2023-03-04T01:29:39.064Z,-0.26
2023-03-04T01:30:39.074Z,-0.26
2023-03-04T01:31:39.029Z,-0.28
2023-03-04T01:32:39.028Z,-0.26
2023-03-04T01:33:39.003Z,-0.25
2023-03-04T01:34:38.997Z,-0.26
2023-03-04T01:35:39.056Z,-0.29
2023-03-04T01:36:38.972Z,-0.26
2023-03-04T01:37:38.959Z,-0.28
2023-03-04T01:38:38.935Z,-0.23
2023-03-04T01:39:38.925Z,-0.28
2023-03-04T01:40:38.909Z,-0.23
2023-03-04T01:41:38.906Z,-0.23
2023-03-04T01:42:38.894Z,-0.14
2023-03-04T01:43:38.873Z,-0.08
2023-03-04T01:44:38.858Z,-0.07
2023-03-04T01:45:45.482Z,0.01
2023-03-04T01:46:39.873Z,0.03
2023-03-04T01:47:38.826Z,-0.03
2023-03-04T01:48:38.991Z,-0.08
2023-03-04T01:49:38.792Z,-0.10
2023-03-04T01:50:38.782Z,-0.13
2023-03-04T01:51:38.791Z,-0.17
2023-03-04T01:52:38.762Z,-0.23
2023-03-04T01:53:38.749Z,-0.21
2023-03-04T01:54:38.737Z,-0.31
2023-03-04T01:55:38.720Z,-0.31
2023-03-04T01:56:38.702Z,-0.28
2023-03-04T01:57:38.693Z,-0.23
2023-03-04T01:58:38.686Z,-0.21
2023-03-04T01:59:38.661Z,-0.20
2023-03-04T02:00:38.648Z,-0.11
2023-03-04T02:01:38.701Z,-0.10
2023-03-04T02:02:38.631Z,-0.08
2023-03-04T02:03:38.611Z,-0.07
2023-03-04T02:04:38.706Z,-0.13
2023-03-04T02:05:38.595Z,-0.17
2023-03-04T02:06:38.584Z,-0.23
2023-03-04T02:07:38.583Z,-0.26
2023-03-04T02:08:38.546Z,-0.35
2023-03-04T02:09:38.541Z,-0.34
2023-03-04T02:10:38.541Z,-0.46
2023-03-04T02:11:38.511Z,-0.46
2023-03-04T02:12:38.506Z,-0.49
2023-03-04T02:13:38.488Z,-0.56
2023-03-04T02:14:38.486Z,-0.54
2023-03-04T02:15:38.599Z,-0.59
2023-03-04T02:16:38.439Z,-0.59
2023-03-04T02:17:38.445Z,-0.64
2023-03-04T02:18:38.425Z,-0.62
2023-03-04T02:19:38.410Z,-0.70
2023-03-04T02:20:38.396Z,-0.68
2023-03-04T02:21:38.382Z,-0.74
2023-03-04T02:22:38.374Z,-0.72
2023-03-04T02:23:38.395Z,-0.75
2023-03-04T02:24:38.336Z,-0.71
2023-03-04T02:25:38.328Z,-0.74
2023-03-04T02:26:38.317Z,-0.82
2023-03-04T02:27:38.297Z,-0.82
2023-03-04T02:28:38.294Z,-0.77
2023-03-04T02:29:38.280Z,-0.74
2023-03-04T02:30:38.256Z,-0.64
2023-03-04T02:31:38.286Z,-0.68
2023-03-04T02:32:38.235Z,-0.67
2023-03-04T02:33:38.220Z,-0.65
2023-03-04T02:34:38.213Z,-0.62
2023-03-04T02:35:38.221Z,-0.54
2023-03-04T02:36:38.180Z,-0.50
2023-03-04T02:37:38.171Z,-0.46
2023-03-04T02:38:38.155Z,-0.50
2023-03-04T02:39:38.164Z,-0.52
2023-03-04T02:40:38.138Z,-0.53
2023-03-04T02:41:38.115Z,-0.61
2023-03-04T02:42:38.113Z,-0.70
2023-03-04T02:43:38.089Z,-0.71
2023-03-04T02:44:38.088Z,-0.77
2023-03-04T02:45:38.085Z,-0.78
2023-03-04T02:46:38.158Z,-0.78
2023-03-04T02:47:38.042Z,-0.86
2023-03-04T02:48:38.022Z,-0.85
2023-03-04T02:49:38.014Z,-0.80
2023-03-04T02:50:37.998Z,-0.89
2023-03-04T02:51:37.993Z,-0.85
2023-03-04T02:52:37.969Z,-0.85
2023-03-04T02:53:37.970Z,-0.80
2023-03-04T02:54:37.950Z,-0.89
2023-03-04T02:55:37.972Z,-0.93
2023-03-04T02:56:37.935Z,-0.91
2023-03-04T02:57:37.913Z,-0.91
2023-03-04T02:58:37.901Z,-0.89
2023-03-04T02:59:37.897Z,-0.82
2023-03-04T03:00:37.872Z,-0.86
2023-03-04T03:01:37.877Z,-0.94
2023-03-04T03:02:37.855Z,-0.93
2023-03-04T03:03:37.830Z,-0.99
2023-03-04T03:04:37.816Z,-1.01
2023-03-04T03:05:37.807Z,-0.99
2023-03-04T03:06:37.797Z,-0.93
2023-03-04T03:07:37.774Z,-0.85
2023-03-04T03:08:37.769Z,-0.91
2023-03-04T03:09:37.752Z,-0.90
2023-03-04T03:10:37.742Z,-0.83
2023-03-04T03:11:37.755Z,-0.89
2023-03-04T03:12:37.720Z,-0.86
2023-03-04T03:13:37.703Z,-0.80
2023-03-04T03:14:37.691Z,-0.82
2023-03-04T03:15:37.674Z,-0.85
2023-03-04T03:16:37.715Z,-0.93
2023-03-04T03:17:37.649Z,-0.96
2023-03-04T03:18:37.641Z,-1.04
2023-03-04T03:19:37.635Z,-1.08
2023-03-04T03:20:37.618Z,-1.07
2023-03-04T03:21:37.614Z,-1.12
2023-03-04T03:22:37.576Z,-1.05
2023-03-04T03:23:37.569Z,-1.04
2023-03-04T03:24:37.549Z,-1.07
2023-03-04T03:25:37.563Z,-1.04
2023-03-04T03:26:37.525Z,-1.14
2023-03-04T03:27:37.534Z,-1.11
2023-03-04T03:28:37.498Z,-1.09
2023-03-04T03:29:37.494Z,-1.15
2023-03-04T03:30:37.472Z,-1.11
2023-03-04T03:31:37.566Z,-1.11
2023-03-04T03:32:37.479Z,-1.12
2023-03-04T03:33:37.439Z,-1.09
2023-03-04T03:34:37.423Z,-1.05
2023-03-04T03:35:37.444Z,-0.99
2023-03-04T03:36:37.534Z,-0.94
2023-03-04T03:37:37.389Z,-0.89
2023-03-04T03:38:37.374Z,-0.93
2023-03-04T03:39:37.365Z,-0.99
2023-03-04T03:40:37.351Z,-0.91
2023-03-04T03:41:37.334Z,-0.99
2023-03-04T03:42:37.314Z,-1.02
2023-03-04T03:43:37.334Z,-1.08
2023-03-04T03:44:37.300Z,-1.04
2023-03-04T03:45:37.296Z,-1.09
2023-03-04T03:46:37.269Z,-1.04
2023-03-04T03:47:37.251Z,-1.02
2023-03-04T03:48:37.240Z,-1.01
2023-03-04T03:49:37.229Z,-1.02
2023-03-04T03:50:37.211Z,-0.99
2023-03-04T03:51:37.205Z,-0.99
2023-03-04T03:52:37.197Z,-0.97
2023-03-04T03:53:37.183Z,-0.93
2023-03-04T03:54:37.160Z,-0.97
2023-03-04T03:55:37.156Z,-0.97
2023-03-04T03:56:37.154Z,-1.04
2023-03-04T03:57:37.122Z,-0.97
2023-03-04T03:58:37.115Z,-0.99
2023-03-04T03:59:37.120Z,-0.99
2023-03-04T04:00:37.094Z,-1.04
2023-03-04T04:01:37.082Z,-1.08
2023-03-04T04:02:37.220Z,-1.09
2023-03-04T04:03:37.050Z,-1.22
2023-03-04T04:04:37.029Z,-1.27
2023-03-04T04:05:37.020Z,-1.23
2023-03-04T04:06:37.006Z,-1.25
2023-03-04T04:07:37.036Z,-1.30
2023-03-04T04:08:36.989Z,-1.40
2023-03-04T04:09:36.974Z,-1.38
2023-03-04T04:10:36.952Z,-1.40
2023-03-04T04:11:36.939Z,-1.44
2023-03-04T04:12:36.934Z,-1.44
2023-03-04T04:13:39.219Z,-1.44
2023-03-04T04:14:36.899Z,-1.41
2023-03-04T04:15:36.926Z,-1.35
2023-03-04T04:16:36.948Z,-1.32
2023-03-04T04:17:36.864Z,-1.26
2023-03-04T04:18:36.864Z,-1.29
2023-03-04T04:19:36.834Z,-1.35
2023-03-04T04:20:36.827Z,-1.35
2023-03-04T04:21:36.807Z,-1.29
2023-03-04T04:22:36.813Z,-1.30
2023-03-04T04:23:36.789Z,-1.23
2023-03-04T04:24:36.774Z,-1.19
2023-03-04T04:25:36.760Z,-1.15
2023-03-04T04:26:36.753Z,-1.12
2023-03-04T04:27:36.729Z,-1.22
2023-03-04T04:28:36.725Z,-1.12
2023-03-04T04:29:36.711Z,-1.12
2023-03-04T04:30:36.775Z,-1.15
2023-03-04T04:31:36.701Z,-1.22
2023-03-04T04:32:36.661Z,-1.15
2023-03-04T04:33:36.654Z,-1.09
2023-03-04T04:34:36.641Z,-1.14
2023-03-04T04:35:36.710Z,-1.15
2023-03-04T04:36:36.620Z,-1.17
2023-03-04T04:37:36.601Z,-1.11
2023-03-04T04:38:36.587Z,-1.20
2023-03-04T04:39:36.579Z,-1.25
2023-03-04T04:40:36.577Z,-1.35
2023-03-04T04:41:36.552Z,-1.41
2023-03-04T04:42:36.540Z,-1.48
2023-03-04T04:43:36.524Z,-1.54
2023-03-04T04:44:36.505Z,-1.59
2023-03-04T04:45:36.492Z,-1.54
2023-03-04T04:46:36.484Z,-1.66
2023-03-04T04:47:36.504Z,-1.69
2023-03-04T04:48:36.456Z,-1.74
2023-03-04T04:49:36.451Z,-1.76
2023-03-04T04:50:36.429Z,-1.76
2023-03-04T04:51:36.420Z,-1.87
2023-03-04T04:52:36.403Z,-1.84
2023-03-04T04:53:36.387Z,-1.86
2023-03-04T04:54:36.382Z,-1.89
2023-03-04T04:55:36.385Z,-1.87
2023-03-04T04:56:36.353Z,-1.89
2023-03-04T04:57:36.335Z,-1.86
2023-03-04T04:58:36.327Z,-1.90
2023-03-04T04:59:36.324Z,-1.89
2023-03-04T05:00:36.302Z,-1.89
2023-03-04T05:01:36.380Z,-1.83
2023-03-04T05:02:36.294Z,-1.79
2023-03-04T05:03:36.301Z,-1.77
2023-03-04T05:04:36.244Z,-1.72
2023-03-04T05:05:36.251Z,-1.69
2023-03-04T05:06:36.225Z,-1.76
2023-03-04T05:07:36.214Z,-1.72
2023-03-04T05:08:36.204Z,-1.77
2023-03-04T05:09:36.205Z,-1.80
2023-03-04T05:10:36.186Z,-1.82
2023-03-04T05:11:36.169Z,-1.83
2023-03-04T05:12:36.152Z,-1.82
2023-03-04T05:13:36.138Z,-1.86
2023-03-04T05:14:36.196Z,-1.83
2023-03-04T05:15:36.276Z,-1.84
2023-03-04T05:16:36.130Z,-1.87
2023-03-04T05:17:36.141Z,-1.89
2023-03-04T05:18:36.166Z,-1.82
2023-03-04T05:19:36.085Z,-1.77
2023-03-04T05:20:36.058Z,-1.72
2023-03-04T05:21:36.069Z,-1.68
2023-03-04T05:22:36.072Z,-1.68
2023-03-04T05:23:36.025Z,-1.64
2023-03-04T05:24:35.989Z,-1.64
2023-03-04T05:25:35.990Z,-1.65
2023-03-04T05:26:35.973Z,-1.65
2023-03-04T05:27:35.971Z,-1.71
2023-03-04T05:28:35.989Z,-1.80
2023-03-04T05:29:35.930Z,-1.80
2023-03-04T05:30:35.920Z,-1.84
2023-03-04T05:31:35.904Z,-1.83
2023-03-04T05:32:35.910Z,-1.82
2023-03-04T05:33:35.876Z,-1.87
2023-03-04T05:34:35.864Z,-1.92
2023-03-04T05:35:35.955Z,-1.89
2023-03-04T05:36:35.846Z,-1.92
2023-03-04T05:37:35.823Z,-1.94
2023-03-04T05:38:35.812Z,-1.95
2023-03-04T05:39:35.813Z,-1.94
2023-03-04T05:40:35.793Z,-1.98
2023-03-04T05:41:35.780Z,-2.02
2023-03-04T05:42:35.760Z,-2.04
2023-03-04T05:43:35.745Z,-2.04
2023-03-04T05:44:35.748Z,-2.04
2023-03-04T05:45:35.727Z,-2.07
2023-03-04T05:46:35.834Z,-2.07
2023-03-04T05:47:35.714Z,-2.07
2023-03-04T05:48:35.690Z,-2.05
2023-03-04T05:49:35.678Z,-2.05
2023-03-04T05:50:35.682Z,-2.07
2023-03-04T05:51:35.673Z,-2.02
2023-03-04T05:52:35.641Z,-2.08
2023-03-04T05:53:35.639Z,-2.05
2023-03-04T05:54:35.605Z,-1.98
2023-03-04T05:55:35.596Z,-2.01
2023-03-04T05:56:35.587Z,-1.98
2023-03-04T05:57:35.569Z,-1.97
2023-03-04T05:58:35.600Z,-1.98
2023-03-04T05:59:35.545Z,-2.01
2023-03-04T06:00:35.531Z,-1.95
2023-03-04T06:01:35.526Z,-1.92
2023-03-04T06:02:35.508Z,-1.90
2023-03-04T06:03:35.607Z,-1.89
2023-03-04T06:04:35.488Z,-1.92
2023-03-04T06:05:35.461Z,-1.94
2023-03-04T06:06:35.450Z,-2.00
2023-03-04T06:07:35.456Z,-1.94
2023-03-04T06:08:35.431Z,-1.97
2023-03-04T06:09:35.407Z,-1.97
2023-03-04T06:10:35.394Z,-2.02
2023-03-04T06:11:36.475Z,-2.01
2023-03-04T06:12:35.376Z,-2.04
2023-03-04T06:13:35.357Z,-2.02
2023-03-04T06:14:35.348Z,-2.01
2023-03-04T06:15:35.354Z,-2.00
2023-03-04T06:16:35.338Z,-1.98
2023-03-04T06:17:35.301Z,-1.97
2023-03-04T06:18:35.292Z,-1.90
2023-03-04T06:19:35.276Z,-1.82
2023-03-04T06:20:35.264Z,-1.80
2023-03-04T06:21:35.267Z,-1.76
2023-03-04T06:22:35.240Z,-1.74
2023-03-04T06:23:35.280Z,-1.69
2023-03-04T06:24:35.253Z,-1.62
2023-03-04T06:25:35.213Z,-1.51
2023-03-04T06:26:35.196Z,-1.48
2023-03-04T06:27:35.193Z,-1.44
2023-03-04T06:28:35.166Z,-1.44
2023-03-04T06:29:35.151Z,-1.48
2023-03-04T06:30:35.141Z,-1.50
2023-03-04T06:31:35.173Z,-1.50
2023-03-04T06:32:35.181Z,-1.50
2023-03-04T06:33:35.102Z,-1.47
2023-03-04T06:34:35.089Z,-1.41
2023-03-04T06:35:35.082Z,-1.40
2023-03-04T06:36:35.053Z,-1.41
2023-03-04T06:37:35.047Z,-1.43
2023-03-04T06:38:35.041Z,-1.37
2023-03-04T06:39:35.048Z,-1.35
2023-03-04T06:40:34.999Z,-1.30
2023-03-04T06:41:34.986Z,-1.22
2023-03-04T06:42:35.006Z,-1.12
2023-03-04T06:43:34.958Z,-1.02
2023-03-04T06:44:34.944Z,-0.99
2023-03-04T06:45:34.965Z,-0.91
2023-03-04T06:46:34.989Z,-0.94
2023-03-04T06:47:34.911Z,-0.90
2023-03-04T06:48:34.894Z,-0.83
2023-03-04T06:49:34.892Z,-0.82
2023-03-04T06:50:34.868Z,-0.78
2023-03-04T06:51:34.915Z,-0.78
2023-03-04T06:52:34.849Z,-0.75
2023-03-04T06:53:34.830Z,-0.72
2023-03-04T06:54:34.830Z,-0.74
2023-03-04T06:55:34.843Z,-0.72
2023-03-04T06:56:34.803Z,-0.62
2023-03-04T06:57:34.782Z,-0.64
2023-03-04T06:58:34.775Z,-0.56
2023-03-04T06:59:34.771Z,-0.53
2023-03-04T07:00:34.857Z,-0.50
2023-03-04T07:01:34.744Z,-0.39
2023-03-04T07:02:34.711Z,-0.29
2023-03-04T07:03:34.701Z,-0.14
2023-03-04T07:04:34.680Z,0.08
2023-03-04T07:05:34.679Z,0.29
2023-03-04T07:06:34.660Z,0.66
2023-03-04T07:07:34.660Z,0.92
2023-03-04T07:08:34.650Z,1.16
2023-03-04T07:09:34.620Z,1.41
2023-03-04T07:10:34.621Z,1.71
2023-03-04T07:11:34.629Z,1.92
2023-03-04T07:12:34.592Z,2.22
2023-03-04T07:13:34.574Z,2.29
2023-03-04T07:14:34.563Z,2.61
2023-03-04T07:15:34.550Z,2.95
2023-03-04T07:16:34.612Z,3.22
2023-03-04T07:17:34.525Z,3.53
2023-03-04T07:18:34.501Z,3.81
2023-03-04T07:19:34.511Z,4.01
2023-03-04T07:20:34.484Z,4.14
2023-03-04T07:21:34.467Z,4.38
2023-03-04T07:22:34.508Z,4.53
2023-03-04T07:23:34.446Z,4.75
2023-03-04T07:24:34.431Z,4.99
2023-03-04T07:25:34.408Z,5.23
2023-03-04T07:26:34.407Z,5.36
2023-03-04T07:27:34.405Z,5.50
2023-03-04T07:28:34.370Z,5.59
2023-03-04T07:29:34.358Z,5.83
2023-03-04T07:30:34.354Z,5.97
2023-03-04T07:31:34.464Z,6.24
2023-03-04T07:32:34.386Z,6.33
2023-03-04T07:33:34.315Z,6.46
2023-03-04T07:34:34.310Z,6.54
2023-03-04T07:35:34.328Z,6.63
2023-03-04T07:36:34.281Z,6.66
2023-03-04T07:37:34.260Z,6.79
2023-03-04T07:38:34.248Z,6.87
2023-03-04T07:39:34.235Z,6.92
2023-03-04T07:40:34.222Z,6.96
2023-03-04T07:41:34.208Z,7.14
2023-03-04T07:42:34.198Z,7.21
2023-03-04T07:43:34.205Z,7.11
2023-03-04T07:44:34.173Z,6.85
2023-03-04T07:45:34.161Z,6.30
2023-03-04T07:46:34.157Z,6.05
2023-03-04T07:47:34.141Z,5.99
2023-03-04T07:48:34.126Z,5.86
2023-03-04T07:49:34.107Z,5.71
2023-03-04T07:50:34.083Z,5.57
2023-03-04T07:51:34.076Z,5.76
2023-03-04T07:52:34.073Z,5.97
2023-03-04T07:53:34.053Z,5.90
2023-03-04T07:54:34.053Z,5.93
2023-03-04T07:55:34.035Z,5.91
2023-03-04T07:56:34.024Z,6.07
2023-03-04T07:57:34.000Z,6.20
2023-03-04T07:58:33.996Z,6.28
2023-03-04T07:59:33.997Z,6.38
2023-03-04T08:00:33.968Z,6.36
2023-03-04T08:01:33.947Z,6.44
2023-03-04T08:02:33.972Z,6.27
2023-03-04T08:03:33.921Z,6.01
2023-03-04T08:04:33.926Z,6.02
2023-03-04T08:05:33.894Z,5.83
2023-03-04T08:06:33.895Z,5.79
2023-03-04T08:07:33.861Z,5.66
2023-03-04T08:08:33.852Z,5.51
2023-03-04T08:09:33.843Z,5.38
2023-03-04T08:10:33.839Z,5.44
2023-03-04T08:11:33.819Z,5.48
2023-03-04T08:12:33.808Z,5.89
2023-03-04T08:13:33.785Z,6.35
2023-03-04T08:14:33.778Z,6.24
2023-03-04T08:15:33.842Z,6.49
2023-03-04T08:16:33.749Z,6.67
2023-03-04T08:17:33.755Z,6.81
2023-03-04T08:18:33.725Z,6.78
2023-03-04T08:19:33.714Z,6.72
2023-03-04T08:20:33.692Z,6.78
2023-03-04T08:21:33.681Z,6.60
2023-03-04T08:22:33.674Z,6.44
2023-03-04T08:23:33.692Z,6.31
2023-03-04T08:24:33.642Z,6.20
2023-03-04T08:25:33.635Z,6.33
2023-03-04T08:26:33.615Z,6.35
2023-03-04T08:27:33.601Z,6.44
2023-03-04T08:28:33.588Z,6.52
2023-03-04T08:29:33.573Z,6.81
2023-03-04T08:30:33.562Z,7.05
2023-03-04T08:31:33.721Z,7.36
2023-03-04T08:32:33.639Z,7.35
2023-03-04T08:33:33.540Z,7.29
2023-03-04T08:34:33.530Z,7.13
2023-03-04T08:35:33.523Z,7.24
2023-03-04T08:36:33.498Z,7.29
2023-03-04T08:37:33.482Z,7.25
2023-03-04T08:38:33.456Z,7.13
2023-03-04T08:39:33.465Z,7.17
2023-03-04T08:40:33.430Z,7.29
2023-03-04T08:41:33.419Z,7.23
2023-03-04T08:42:33.411Z,7.33
2023-03-04T08:43:33.399Z,7.48
2023-03-04T08:44:33.377Z,7.72
2023-03-04T08:45:33.380Z,7.94
2023-03-04T08:46:33.487Z,8.09
2023-03-04T08:47:33.361Z,8.23
2023-03-04T08:48:33.337Z,8.23
2023-03-04T08:49:33.324Z,8.05
2023-03-04T08:50:33.300Z,7.82
2023-03-04T08:51:33.294Z,7.83
2023-03-04T08:52:33.293Z,8.09
2023-03-04T08:53:33.266Z,8.15
2023-03-04T08:54:33.268Z,8.09
2023-03-04T08:55:33.237Z,8.08
2023-03-04T08:56:33.231Z,8.09
2023-03-04T08:57:33.216Z,8.20
2023-03-04T08:58:33.200Z,8.19
2023-03-04T08:59:33.191Z,8.37
2023-03-04T09:00:33.185Z,8.38
2023-03-04T09:01:33.204Z,8.53
2023-03-04T09:02:33.153Z,8.88
2023-03-04T09:03:33.227Z,9.39
2023-03-04T09:04:33.123Z,9.94
2023-03-04T09:05:33.102Z,10.63
2023-03-04T09:06:33.090Z,11.14
2023-03-04T09:07:33.076Z,11.47
2023-03-04T09:08:33.071Z,11.68
2023-03-04T09:09:33.072Z,11.88
2023-03-04T09:10:33.041Z,11.88
2023-03-04T09:11:33.041Z,12.03
2023-03-04T09:12:33.017Z,12.07
2023-03-04T09:13:33.023Z,12.07
2023-03-04T09:14:33.003Z,11.78
2023-03-04T09:15:32.984Z,11.72
2023-03-04T09:16:32.991Z,11.81
2023-03-04T09:17:32.960Z,11.95
2023-03-04T09:18:32.944Z,12.15
2023-03-04T09:19:32.946Z,12.22
2023-03-04T09:20:32.910Z,12.28
2023-03-04T09:21:32.896Z,12.35
2023-03-04T09:22:32.887Z,12.62
2023-03-04T09:23:32.898Z,12.47
2023-03-04T09:24:32.868Z,12.17
2023-03-04T09:25:32.850Z,11.81
2023-03-04T09:26:32.846Z,11.75
2023-03-04T09:27:32.818Z,11.66
2023-03-04T09:28:32.803Z,11.78
2023-03-04T09:29:32.809Z,11.72
2023-03-04T09:30:32.788Z,11.57
2023-03-04T09:31:32.784Z,11.02
2023-03-04T09:32:32.875Z,10.69
2023-03-04T09:33:32.755Z,10.61
2023-03-04T09:34:32.788Z,10.68
2023-03-04T09:35:32.873Z,10.34
2023-03-04T09:36:32.740Z,10.30
2023-03-04T09:37:32.700Z,10.07
2023-03-04T09:38:32.701Z,9.82
2023-03-04T09:39:32.662Z,9.69
2023-03-04T09:40:32.706Z,9.73
2023-03-04T09:41:32.649Z,9.69
2023-03-04T09:42:32.633Z,9.68
2023-03-04T09:43:32.616Z,9.66
2023-03-04T09:44:32.611Z,9.69
2023-03-04T09:45:32.590Z,9.97
2023-03-04T09:46:32.657Z,10.10
2023-03-04T09:47:32.587Z,9.94
2023-03-04T09:48:32.550Z,9.69
2023-03-04T09:49:32.542Z,9.56
2023-03-04T09:50:32.523Z,9.37
2023-03-04T09:51:32.528Z,9.19
2023-03-04T09:52:32.498Z,9.03
2023-03-04T09:53:32.484Z,9.22
2023-03-04T09:54:32.472Z,9.76
2023-03-04T09:55:32.475Z,10.31
2023-03-04T09:56:32.454Z,10.64
2023-03-04T09:57:32.426Z,11.04
2023-03-04T09:58:32.426Z,11.05
2023-03-04T09:59:32.397Z,11.14
2023-03-04T10:00:32.403Z,11.07
2023-03-04T10:01:32.367Z,10.86
2023-03-04T10:02:32.356Z,10.44
2023-03-04T10:03:32.391Z,10.22
2023-03-04T10:04:32.388Z,9.98
2023-03-04T10:05:32.313Z,9.74
2023-03-04T10:06:32.310Z,9.58
2023-03-04T10:07:32.315Z,9.36
2023-03-04T10:08:32.289Z,9.22
2023-03-04T10:09:32.272Z,8.92
2023-03-04T10:10:32.260Z,8.91
2023-03-04T10:11:32.245Z,8.92
2023-03-04T10:12:32.232Z,8.94
2023-03-04T10:13:32.227Z,9.13
2023-03-04T10:14:32.209Z,9.43
2023-03-04T10:15:32.194Z,9.56
2023-03-04T10:16:32.288Z,9.61
2023-03-04T10:17:32.173Z,9.73
2023-03-04T10:18:32.147Z,10.20
2023-03-04T10:19:32.149Z,10.51
2023-03-04T10:20:32.128Z,10.38
2023-03-04T10:21:32.122Z,10.22
2023-03-04T10:22:32.115Z,9.97
2023-03-04T10:23:32.132Z,9.91
2023-03-04T10:24:32.078Z,9.84
2023-03-04T10:25:32.059Z,9.82
2023-03-04T10:26:32.045Z,9.86
2023-03-04T10:27:32.031Z,9.97
2023-03-04T10:28:32.024Z,10.05
2023-03-04T10:29:32.027Z,10.05
2023-03-04T10:30:31.992Z,10.22
2023-03-04T10:31:32.043Z,10.16
2023-03-04T10:32:32.051Z,10.20
2023-03-04T10:33:31.965Z,10.22
2023-03-04T10:34:31.930Z,10.38
2023-03-04T10:35:31.937Z,10.48
2023-03-04T10:36:31.910Z,10.37
2023-03-04T10:37:31.892Z,10.01
2023-03-04T10:38:31.886Z,9.72
2023-03-04T10:39:31.892Z,9.65
2023-03-04T10:40:31.847Z,9.56
2023-03-04T10:41:32.102Z,9.54
2023-03-04T10:42:32.035Z,9.46
2023-03-04T10:43:31.826Z,9.47
2023-03-04T10:44:31.802Z,9.39
2023-03-04T10:45:31.824Z,9.36
2023-03-04T10:46:31.766Z,9.43
2023-03-04T10:47:31.779Z,9.48
2023-03-04T10:48:31.757Z,9.51
2023-03-04T10:49:31.735Z,9.62
2023-03-04T10:50:31.717Z,9.69
2023-03-04T10:51:31.702Z,9.77
2023-03-04T10:52:31.697Z,9.66
2023-03-04T10:53:31.679Z,9.64
2023-03-04T10:54:31.670Z,9.58
2023-03-04T10:55:31.689Z,9.59
2023-03-04T10:56:31.643Z,9.65
2023-03-04T10:57:31.636Z,9.68
2023-03-04T10:58:31.613Z,9.76
2023-03-04T10:59:31.609Z,9.76
2023-03-04T11:00:31.577Z,9.66
2023-03-04T11:01:31.570Z,9.47
2023-03-04T11:02:31.559Z,9.26
2023-03-04T11:03:31.595Z,9.16
2023-03-04T11:04:31.536Z,9.06
2023-03-04T11:05:31.514Z,9.02
2023-03-04T11:06:31.503Z,9.11
2023-03-04T11:07:35.839Z,9.14
2023-03-04T11:08:32.537Z,9.26
2023-03-04T11:09:31.464Z,9.31
2023-03-04T11:10:31.442Z,9.32
2023-03-04T11:11:31.464Z,9.41
2023-03-04T11:12:31.417Z,9.46
2023-03-04T11:13:31.409Z,9.51
2023-03-04T11:14:31.390Z,9.61
2023-03-04T11:15:31.385Z,9.64
2023-03-04T11:16:31.494Z,9.58
2023-03-04T11:17:31.359Z,9.64
2023-03-04T11:18:31.343Z,9.39
2023-03-04T11:19:31.347Z,9.46
2023-03-04T11:20:31.318Z,9.50
2023-03-04T11:21:31.301Z,9.56
2023-03-04T11:22:31.291Z,9.58
2023-03-04T11:23:31.270Z,9.51
2023-03-04T11:24:31.267Z,9.54
2023-03-04T11:25:31.246Z,9.59
2023-03-04T11:26:31.227Z,9.64
2023-03-04T11:27:31.245Z,9.66
2023-03-04T11:28:31.209Z,9.66
2023-03-04T11:29:31.195Z,9.73
2023-03-04T11:30:31.187Z,9.68
2023-03-04T11:31:31.199Z,9.59
2023-03-04T11:32:31.236Z,9.50
2023-03-04T11:33:31.142Z,9.44
2023-03-04T11:34:31.126Z,9.44
2023-03-04T11:35:31.191Z,9.47
2023-03-04T11:36:31.112Z,9.46
2023-03-04T11:37:31.115Z,9.41
2023-03-04T11:38:31.090Z,9.32
2023-03-04T11:39:31.068Z,9.43
2023-03-04T11:40:31.071Z,9.48
2023-03-04T11:41:31.067Z,9.51
2023-03-04T11:42:31.045Z,9.56
2023-03-04T11:43:31.049Z,9.54
2023-03-04T11:44:31.017Z,9.48
2023-03-04T11:45:32.922Z,9.48
2023-03-04T11:46:31.048Z,9.32
2023-03-04T11:47:30.987Z,9.34
2023-03-04T11:48:30.982Z,9.31
2023-03-04T11:49:30.966Z,9.26
2023-03-04T11:50:30.956Z,9.25
2023-03-04T11:51:30.944Z,9.23
2023-03-04T11:52:30.923Z,9.26
2023-03-04T11:53:30.947Z,9.26
2023-03-04T11:54:30.903Z,9.22
2023-03-04T11:55:30.896Z,9.14
2023-03-04T11:56:30.875Z,9.14
2023-03-04T11:57:30.877Z,9.14
2023-03-04T11:58:30.845Z,9.14
2023-03-04T11:59:30.853Z,9.14
2023-03-04T12:00:30.821Z,9.13
2023-03-04T12:01:30.799Z,9.10
2023-03-04T12:02:30.781Z,9.06
2023-03-04T12:03:30.901Z,9.04
2023-03-04T12:04:30.906Z,9.02
2023-03-04T12:05:30.779Z,9.04
2023-03-04T12:06:30.741Z,9.03
2023-03-04T12:07:30.716Z,8.99
2023-03-04T12:08:30.714Z,9.03
2023-03-04T12:09:30.689Z,9.04
2023-03-04T12:10:30.713Z,9.08
2023-03-04T12:11:30.663Z,9.16
2023-03-04T12:12:30.656Z,9.13
2023-03-04T12:13:30.639Z,9.11
2023-03-04T12:14:30.635Z,9.16
2023-03-04T12:15:30.670Z,9.16
2023-03-04T12:16:30.607Z,9.18
2023-03-04T12:17:30.608Z,9.18
2023-03-04T12:18:30.571Z,9.23
2023-03-04T12:19:30.566Z,9.21
2023-03-04T12:20:30.547Z,9.18
2023-03-04T12:21:30.555Z,9.18
2023-03-04T12:22:30.520Z,9.19
2023-03-04T12:23:30.529Z,9.13
2023-03-04T12:24:30.505Z,9.14
2023-03-04T12:25:30.496Z,9.02
2023-03-04T12:26:30.480Z,9.03
2023-03-04T12:27:30.465Z,9.13
2023-03-04T12:28:30.446Z,9.16
2023-03-04T12:29:30.431Z,9.16
2023-03-04T12:30:30.415Z,9.16
2023-03-04T12:31:30.550Z,9.19
2023-03-04T12:32:30.413Z,9.23
2023-03-04T12:33:30.422Z,9.16
2023-03-04T12:34:30.359Z,9.14
2023-03-04T12:35:30.381Z,9.14
2023-03-04T12:36:30.344Z,9.18
2023-03-04T12:37:30.333Z,9.19
2023-03-04T12:38:30.315Z,9.23
2023-03-04T12:39:30.300Z,9.29
2023-03-04T12:40:30.298Z,9.31
2023-03-04T12:41:30.284Z,9.36
2023-03-04T12:42:30.262Z,9.44
2023-03-04T12:43:30.242Z,9.55
2023-03-04T12:44:30.237Z,9.56
2023-03-04T12:45:30.219Z,9.64
2023-03-04T12:46:30.246Z,9.62
2023-03-04T12:47:30.221Z,9.58
2023-03-04T12:48:30.184Z,9.50
2023-03-04T12:49:30.171Z,9.48
2023-03-04T12:50:30.183Z,9.48
2023-03-04T12:51:30.144Z,9.40
2023-03-04T12:52:30.124Z,9.31
2023-03-04T12:53:30.145Z,9.21
2023-03-04T12:54:30.094Z,9.18
2023-03-04T12:55:30.090Z,9.23
2023-03-04T12:56:30.078Z,9.26
2023-03-04T12:57:30.057Z,9.32
2023-03-04T12:58:30.052Z,9.41
2023-03-04T12:59:30.035Z,9.44
2023-03-04T13:00:30.018Z,9.44
2023-03-04T13:01:30.014Z,9.48
2023-03-04T13:02:30.193Z,9.51
2023-03-04T13:03:30.198Z,9.56
2023-03-04T13:04:29.969Z,9.59
2023-03-04T13:05:29.957Z,9.66